createdAt,value
2018-09-19T00:00:27.676Z,54.44
2018-09-19T00:02:56.348Z,55.06
2018-09-19T00:05:26.330Z,55.74
2018-09-19T00:07:55.613Z,54.92
2018-09-19T00:10:25.121Z,56.16
2018-09-19T00:12:55.822Z,55.70
2018-09-19T00:15:24.655Z,55.82
2018-09-19T00:17:54.589Z,55.50
2018-09-19T00:20:23.576Z,56.43
2018-09-19T00:22:52.360Z,56.17
2018-09-19T00:25:21.116Z,56.26
2018-09-19T00:27:50.757Z,56.83
2018-09-19T00:30:19.638Z,56.73
2018-09-19T00:32:49.066Z,57.04
2018-09-19T00:35:18.409Z,57.17
2018-09-19T00:37:47.303Z,57.18
2018-09-19T00:40:16.814Z,57.32
2018-09-19T00:42:45.972Z,57.40
2018-09-19T00:45:14.736Z,57.73
2018-09-19T00:47:43.743Z,57.46
2018-09-19T00:50:12.442Z,57.47
2018-09-19T00:52:41.157Z,58.30
2018-09-19T00:55:09.860Z,58.54
2018-09-19T00:57:38.454Z,57.98
2018-09-19T01:00:07.246Z,59.19
2018-09-19T01:02:36.080Z,58.75
2018-09-19T01:05:05.554Z,58.65
2018-09-19T01:07:34.236Z,58.91
2018-09-19T01:10:04.826Z,58.79
2018-09-19T01:12:33.597Z,59.71
2018-09-19T01:15:03.319Z,59.92
2018-09-19T01:17:32.107Z,58.86
2018-09-19T01:20:00.750Z,58.78
2018-09-19T01:22:29.826Z,59.07
2018-09-19T01:24:58.688Z,60.01
2018-09-19T01:27:27.884Z,60.07
2018-09-19T01:29:56.777Z,60.29
2018-09-19T01:32:25.700Z,59.87
2018-09-19T01:34:55.134Z,59.96
2018-09-19T01:37:23.808Z,60.19
2018-09-19T01:39:52.476Z,59.96
2018-09-19T01:42:21.175Z,60.43
2018-09-19T01:44:49.939Z,60.37
2018-09-19T01:47:18.801Z,60.37
2018-09-19T01:49:47.451Z,61.20
2018-09-19T01:52:16.826Z,60.67
2018-09-19T01:54:45.890Z,60.93
2018-09-19T01:57:14.709Z,60.52
2018-09-19T01:59:43.411Z,61.19
2018-09-19T02:02:12.577Z,60.38
2018-09-19T02:04:41.431Z,60.65
2018-09-19T02:07:10.377Z,60.65
2018-09-19T02:09:40.050Z,61.10
2018-09-19T02:12:08.989Z,61.11
2018-09-19T02:14:38.067Z,61.08
2018-09-19T02:17:06.896Z,61.04
2018-09-19T02:19:35.562Z,61.39
2018-09-19T02:22:04.314Z,61.80
2018-09-19T02:24:33.091Z,61.59
2018-09-19T02:27:01.919Z,61.47
2018-09-19T02:29:30.885Z,62.01
2018-09-19T02:31:59.753Z,61.67
2018-09-19T02:34:28.609Z,61.99
2018-09-19T02:36:57.530Z,61.58
2018-09-19T02:39:26.552Z,61.57
2018-09-19T02:41:55.315Z,61.21
2018-09-19T02:47:06.563Z,61.81
2018-09-19T02:49:36.324Z,62.38
2018-09-19T02:52:05.047Z,61.77
2018-09-19T02:54:33.930Z,61.63
2018-09-19T02:57:02.774Z,61.43
2018-09-19T02:59:31.684Z,61.62
2018-09-19T03:02:00.381Z,60.91
2018-09-19T03:04:29.826Z,60.36
2018-09-19T03:06:58.872Z,61.14
2018-09-19T03:09:27.581Z,60.72
2018-09-19T03:11:56.546Z,60.69
2018-09-19T03:14:25.482Z,60.90
2018-09-19T03:16:54.148Z,59.87
2018-09-19T03:19:22.906Z,60.22
2018-09-19T03:21:52.442Z,60.16
2018-09-19T03:24:21.942Z,60.18
2018-09-19T03:26:50.717Z,60.89
2018-09-19T03:29:20.200Z,61.14
2018-09-19T03:31:48.906Z,60.69
2018-09-19T03:34:18.179Z,60.96
2018-09-19T03:36:46.989Z,61.00
2018-09-19T03:39:15.918Z,61.55
2018-09-19T03:41:44.543Z,61.30
2018-09-19T03:44:13.964Z,61.13
2018-09-19T03:46:42.716Z,62.07
2018-09-19T03:49:12.754Z,60.73
2018-09-19T03:51:41.821Z,61.52
2018-09-19T03:54:10.430Z,61.76
2018-09-19T03:56:40.157Z,61.42
2018-09-19T03:59:09.705Z,62.18
2018-09-19T04:01:38.399Z,62.17
2018-09-19T04:04:07.122Z,61.94
2018-09-19T04:06:35.937Z,61.98
2018-09-19T04:09:07.419Z,62.29
2018-09-19T04:11:36.107Z,62.62
2018-09-19T04:14:04.939Z,62.66
2018-09-19T04:16:34.232Z,63.60
2018-09-19T04:19:04.292Z,62.99
2018-09-19T04:21:33.137Z,63.94
2018-09-19T04:24:01.846Z,63.34
2018-09-19T04:26:30.626Z,63.80
2018-09-19T04:28:59.300Z,64.33
2018-09-19T04:31:27.995Z,64.20
2018-09-19T04:33:57.062Z,64.17
2018-09-19T04:36:25.864Z,64.17
2018-09-19T04:38:54.507Z,64.31
2018-09-19T04:41:23.953Z,63.84
2018-09-19T04:43:52.615Z,63.79
2018-09-19T04:46:21.553Z,63.79
2018-09-19T04:48:50.398Z,63.80
2018-09-19T04:51:19.354Z,64.24
2018-09-19T04:53:48.161Z,64.36
2018-09-19T04:56:16.823Z,64.16
2018-09-19T04:58:45.522Z,64.86
2018-09-19T05:01:15.804Z,64.31
2018-09-19T05:03:45.670Z,64.34
2018-09-19T05:06:14.339Z,64.40
2018-09-19T05:08:43.246Z,64.38
2018-09-19T05:11:12.007Z,64.80
2018-09-19T05:13:41.176Z,64.64
2018-09-19T05:16:10.816Z,63.89
2018-09-19T05:18:39.595Z,63.19
2018-09-19T05:21:08.619Z,63.53
2018-09-19T05:23:37.519Z,63.19
2018-09-19T05:26:06.388Z,63.67
2018-09-19T05:28:35.121Z,63.66
2018-09-19T05:31:05.042Z,63.94
2018-09-19T05:33:34.031Z,63.74
2018-09-19T05:36:03.945Z,63.38
2018-09-19T05:38:33.101Z,63.93
2018-09-19T05:41:02.495Z,63.43
2018-09-19T05:43:31.235Z,63.66
2018-09-19T05:46:00.165Z,62.77
2018-09-19T05:48:29.119Z,63.18
2018-09-19T05:51:01.502Z,61.79
2018-09-19T05:53:30.286Z,61.46
2018-09-19T05:56:00.794Z,60.97
2018-09-19T05:58:29.364Z,60.82
2018-09-19T06:00:59.610Z,60.93
2018-09-19T06:03:29.084Z,61.38
2018-09-19T06:05:57.843Z,60.36
2018-09-19T06:08:26.460Z,60.12
2018-09-19T06:10:56.183Z,61.63
2018-09-19T06:13:24.966Z,60.57
2018-09-19T06:15:54.109Z,61.18
2018-09-19T06:18:22.926Z,61.74
2018-09-19T06:20:51.619Z,60.83
2018-09-19T06:23:20.727Z,60.91
2018-09-19T06:25:50.566Z,62.03
2018-09-19T06:28:20.046Z,61.33
2018-09-19T06:30:48.780Z,60.73
2018-09-19T06:33:18.959Z,60.77
2018-09-19T06:35:47.580Z,60.23
2018-09-19T06:38:16.466Z,61.20
2018-09-19T06:40:45.562Z,60.89
2018-09-19T06:43:15.263Z,61.06
2018-09-19T06:45:44.422Z,60.74
2018-09-19T06:48:14.780Z,59.97
2018-09-19T06:50:44.166Z,60.56
2018-09-19T06:53:13.452Z,60.54
2018-09-19T06:55:42.223Z,60.81
2018-09-19T06:58:11.396Z,60.33
2018-09-19T07:00:40.821Z,60.33
2018-09-19T07:03:09.568Z,60.79
2018-09-19T07:05:39.225Z,60.14
2018-09-19T07:08:08.549Z,59.72
2018-09-19T07:10:37.372Z,59.67
2018-09-19T07:13:06.238Z,60.05
2018-09-19T07:15:35.158Z,60.32
2018-09-19T07:18:06.056Z,59.85
2018-09-19T07:20:34.655Z,59.62
2018-09-19T07:23:04.228Z,59.24
2018-09-19T07:25:33.101Z,58.71
2018-09-19T07:28:02.042Z,58.78
2018-09-19T07:30:32.586Z,58.57
2018-09-19T07:33:03.569Z,58.95
2018-09-19T07:35:32.327Z,58.35
2018-09-19T07:38:02.417Z,59.19
2018-09-19T07:40:31.150Z,58.29
2018-09-19T07:43:00.074Z,57.82
2018-09-19T07:45:29.076Z,58.02
2018-09-19T07:47:57.678Z,57.14
2018-09-19T07:50:26.582Z,57.64
2018-09-19T07:52:55.914Z,57.89
2018-09-19T07:55:24.502Z,56.96
2018-09-19T07:57:53.350Z,57.16
2018-09-19T08:00:22.168Z,56.92
2018-09-19T08:02:52.347Z,56.86
2018-09-19T08:05:21.401Z,57.16
2018-09-19T08:07:50.154Z,56.44
2018-09-19T08:10:19.469Z,56.61
2018-09-19T08:12:48.929Z,56.32
2018-09-19T08:15:17.660Z,56.19
2018-09-19T08:17:46.317Z,57.38
2018-09-19T08:20:15.377Z,55.87
2018-09-19T08:22:44.308Z,55.70
2018-09-19T08:25:13.556Z,58.68
2018-09-19T08:27:42.801Z,56.08
2018-09-19T08:30:11.485Z,55.93
2018-09-19T08:32:40.063Z,56.45
2018-09-19T08:35:08.948Z,54.74
2018-09-19T08:37:37.966Z,55.51
2018-09-19T08:40:06.710Z,55.56
2018-09-19T08:42:37.347Z,56.38
2018-09-19T08:45:06.333Z,56.73
2018-09-19T08:47:35.068Z,55.32
2018-09-19T08:50:04.241Z,54.33
2018-09-19T08:52:33.686Z,53.74
2018-09-19T08:55:02.958Z,53.31
2018-09-19T08:57:33.619Z,54.54
2018-09-19T09:00:04.207Z,53.77
2018-09-19T09:02:34.327Z,54.31
2018-09-19T09:05:03.543Z,52.88
2018-09-19T09:07:32.250Z,52.48
2018-09-19T09:10:03.209Z,53.08
2018-09-19T09:12:32.079Z,52.96
2018-09-19T09:15:01.422Z,52.67
2018-09-19T09:17:31.373Z,52.78
2018-09-19T09:20:02.577Z,52.39
2018-09-19T09:22:31.568Z,52.74
2018-09-19T09:25:00.940Z,52.01
2018-09-19T09:27:30.275Z,50.97
2018-09-19T09:30:00.370Z,50.46
2018-09-19T09:32:29.134Z,50.50
2018-09-19T09:34:58.073Z,51.18
2018-09-19T09:37:28.308Z,50.73
2018-09-19T09:39:56.904Z,51.25
2018-09-19T09:42:25.971Z,50.35
2018-09-19T09:44:57.428Z,50.07
2018-09-19T09:47:28.499Z,50.33
2018-09-19T09:49:57.132Z,50.65
2018-09-19T09:52:26.572Z,50.15
2018-09-19T09:54:55.609Z,49.78
2018-09-19T09:57:25.031Z,49.34
2018-09-19T09:59:53.930Z,49.83
2018-09-19T10:02:22.660Z,48.90
2018-09-19T10:04:52.686Z,48.79
2018-09-19T10:07:22.084Z,48.59
2018-09-19T10:09:51.961Z,49.44
2018-09-19T10:12:22.564Z,49.61
2018-09-19T10:14:51.462Z,48.31
2018-09-19T10:17:20.302Z,48.74
2018-09-19T10:19:49.087Z,48.28
2018-09-19T10:22:17.960Z,48.05
2018-09-19T10:24:47.071Z,47.79
2018-09-19T10:27:17.973Z,47.36
2018-09-19T10:29:47.381Z,48.02
2018-09-19T10:32:16.277Z,47.23
2018-09-19T10:34:46.134Z,46.99
2018-09-19T10:37:15.535Z,46.78
2018-09-19T10:39:44.422Z,46.67
2018-09-19T10:42:14.044Z,47.02
2018-09-19T10:44:42.920Z,45.99
2018-09-19T10:47:11.912Z,46.89
2018-09-19T10:49:40.996Z,46.61
2018-09-19T10:52:10.184Z,46.01
2018-09-19T10:54:39.916Z,46.56
2018-09-19T10:57:10.947Z,47.08
2018-09-19T10:59:40.008Z,47.02
2018-09-19T11:02:09.133Z,46.31
2018-09-19T11:04:38.465Z,45.74
2018-09-19T11:07:07.166Z,46.27
2018-09-19T11:09:37.125Z,44.86
2018-09-19T11:12:06.911Z,45.05
2018-09-19T11:14:36.033Z,44.88
2018-09-19T11:17:05.326Z,45.32
2018-09-19T11:19:34.754Z,45.05
2018-09-19T11:22:05.906Z,44.64
2018-09-19T11:24:35.078Z,44.40
2018-09-19T11:27:04.898Z,44.24
2018-09-19T11:29:35.787Z,42.95
2018-09-19T11:32:06.077Z,43.22
2018-09-19T11:34:37.294Z,43.31
2018-09-19T11:37:07.145Z,43.20
2018-09-19T11:39:38.760Z,42.22
2018-09-19T11:42:15.030Z,42.93
2018-09-19T11:44:44.262Z,42.16
2018-09-19T11:47:14.416Z,42.63
2018-09-19T11:49:43.445Z,41.47
2018-09-19T11:52:16.580Z,42.27
2018-09-19T11:54:45.702Z,40.81
2018-09-19T11:57:15.131Z,41.58
2018-09-19T11:59:44.433Z,40.57
2018-09-19T12:02:13.245Z,41.91
2018-09-19T12:04:43.096Z,41.79
2018-09-19T12:07:11.980Z,41.02
2018-09-19T12:09:42.824Z,40.08
2018-09-19T12:12:13.808Z,39.70
2018-09-19T12:14:43.972Z,40.11
2018-09-19T12:17:13.016Z,39.60
2018-09-19T12:19:42.018Z,39.15
2018-09-19T12:22:11.063Z,39.81
2018-09-19T12:24:40.739Z,40.48
2018-09-19T12:27:09.817Z,39.67
2018-09-19T12:29:38.615Z,39.62
2018-09-19T12:32:07.497Z,39.43
2018-09-19T12:34:36.564Z,39.69
2018-09-19T12:37:05.477Z,40.14
2018-09-19T12:39:35.486Z,40.03
2018-09-19T12:42:04.875Z,39.18
2018-09-19T12:44:33.702Z,39.35
2018-09-19T12:47:03.536Z,39.26
2018-09-19T12:49:32.587Z,39.26
2018-09-19T12:52:02.074Z,39.46
2018-09-19T12:54:31.507Z,39.78
2018-09-19T12:57:02.925Z,39.41
2018-09-19T12:59:32.443Z,38.84
2018-09-19T13:02:01.521Z,39.75
2018-09-19T13:04:30.645Z,39.33
2018-09-19T13:07:00.389Z,39.73
2018-09-19T13:09:30.917Z,39.01
2018-09-19T13:12:00.389Z,38.38
2018-09-19T13:14:29.760Z,39.51
2018-09-19T13:16:58.594Z,38.87
2018-09-19T13:19:27.514Z,39.28
2018-09-19T13:21:56.472Z,39.90
2018-09-19T13:24:25.324Z,39.23
2018-09-19T13:26:55.288Z,40.58
2018-09-19T13:29:24.098Z,40.28
2018-09-19T13:31:53.936Z,40.58
2018-09-19T13:34:23.163Z,39.74
2018-09-19T13:36:52.175Z,39.54
2018-09-19T13:39:21.523Z,39.92
2018-09-19T13:41:50.632Z,39.32
2018-09-19T13:44:20.080Z,39.38
2018-09-19T13:46:49.072Z,39.00
2018-09-19T13:49:26.989Z,39.50
2018-09-19T13:51:56.278Z,39.17
2018-09-19T13:54:26.110Z,38.40
2018-09-19T13:56:55.956Z,38.88
2018-09-19T13:59:25.403Z,38.22
2018-09-19T14:01:54.909Z,38.30
2018-09-19T14:04:23.736Z,38.27
2018-09-19T14:06:52.436Z,38.36
2018-09-19T14:09:21.489Z,38.46
2018-09-19T14:11:51.491Z,38.68
2018-09-19T14:14:20.259Z,38.36
2018-09-19T14:16:49.817Z,38.57
2018-09-19T14:19:19.802Z,38.20
2018-09-19T14:21:49.368Z,38.14
2018-09-19T14:24:19.170Z,38.12
2018-09-19T14:26:48.840Z,38.64
2018-09-19T14:29:18.239Z,38.14
2018-09-19T14:31:48.019Z,38.03
2018-09-19T14:34:17.645Z,38.74
2018-09-19T14:36:48.635Z,38.09
2018-09-19T14:39:17.379Z,38.77
2018-09-19T14:41:47.156Z,38.14
2018-09-19T14:44:16.045Z,38.44
2018-09-19T14:46:44.777Z,38.93
2018-09-19T14:49:13.528Z,38.30
2018-09-19T14:51:42.414Z,37.62
2018-09-19T14:54:12.159Z,37.73
2018-09-19T14:56:42.124Z,37.69
2018-09-19T14:59:11.594Z,38.30
2018-09-19T15:01:40.361Z,38.44
2018-09-19T15:04:09.067Z,37.94
2018-09-19T15:06:38.343Z,37.89
2018-09-19T15:09:09.519Z,37.87
2018-09-19T15:11:39.126Z,38.04
2018-09-19T15:14:07.952Z,37.91
2018-09-19T15:16:36.824Z,37.63
2018-09-19T15:19:06.914Z,38.71
2018-09-19T15:21:35.586Z,38.10
2018-09-19T15:24:04.738Z,37.60
2018-09-19T15:26:34.706Z,38.28
2018-09-19T15:29:04.248Z,38.02
2018-09-19T15:31:34.814Z,37.85
2018-09-19T15:34:03.946Z,38.01
2018-09-19T15:36:32.864Z,38.75
2018-09-19T15:39:02.249Z,39.51
2018-09-19T15:41:32.165Z,39.54
2018-09-19T15:44:01.804Z,38.92
2018-09-19T15:46:32.527Z,39.49
2018-09-19T15:49:01.904Z,40.33
2018-09-19T15:51:31.204Z,40.43
2018-09-19T15:54:00.136Z,40.57
2018-09-19T15:56:28.818Z,40.65
2018-09-19T15:58:57.526Z,40.71
2018-09-19T16:01:28.126Z,40.70
2018-09-19T16:03:57.856Z,41.06
2018-09-19T16:06:28.375Z,41.59
2018-09-19T16:08:57.571Z,41.23
2018-09-19T16:11:26.232Z,41.41
2018-09-19T16:13:55.490Z,40.76
2018-09-19T16:16:26.849Z,41.53
2018-09-19T16:18:56.038Z,41.71
2018-09-19T16:21:25.728Z,42.45
2018-09-19T16:23:54.811Z,41.48
2018-09-19T16:26:25.429Z,41.82
2018-09-19T16:28:54.622Z,42.31
2018-09-19T16:31:24.140Z,42.09
2018-09-19T16:33:52.954Z,42.61
2018-09-19T16:36:21.780Z,43.01
2018-09-19T16:38:50.655Z,42.17
2018-09-19T16:41:21.031Z,42.19
2018-09-19T16:43:50.597Z,42.37
2018-09-19T16:46:20.371Z,43.64
2018-09-19T16:48:50.728Z,43.25
2018-09-19T16:51:19.399Z,42.67
2018-09-19T16:53:48.479Z,42.97
2018-09-19T16:56:17.743Z,43.71
2018-09-19T16:58:46.573Z,43.87
2018-09-19T17:01:15.797Z,43.14
2018-09-19T17:03:44.474Z,43.40
2018-09-19T17:06:13.147Z,44.60
2018-09-19T17:08:41.891Z,44.14
2018-09-19T17:11:10.757Z,44.30
2018-09-19T17:13:39.449Z,45.00
2018-09-19T17:16:08.416Z,44.50
2018-09-19T17:18:37.893Z,44.10
2018-09-19T17:21:07.464Z,44.83
2018-09-19T17:23:40.230Z,44.83
2018-09-19T17:26:09.072Z,45.08
2018-09-19T17:28:38.613Z,45.12
2018-09-19T17:31:08.934Z,44.79
2018-09-19T17:33:39.281Z,44.52
2018-09-19T17:36:09.765Z,44.80
2018-09-19T17:38:38.854Z,44.82
2018-09-19T17:41:07.726Z,44.88
2018-09-19T17:43:38.023Z,45.25
2018-09-19T17:46:07.913Z,45.90
2018-09-19T17:48:36.673Z,45.75
2018-09-19T17:51:06.029Z,46.16
2018-09-19T17:53:34.620Z,46.39
2018-09-19T17:56:06.054Z,46.87
2018-09-19T17:58:34.883Z,47.06
2018-09-19T18:01:06.348Z,46.87
2018-09-19T18:03:35.082Z,46.64
2018-09-19T18:06:05.365Z,47.08
2018-09-19T18:08:35.403Z,46.77
2018-09-19T18:11:04.386Z,47.29
2018-09-19T18:13:33.650Z,47.16
2018-09-19T18:16:03.129Z,46.99
2018-09-19T18:18:32.298Z,47.69
2018-09-19T18:21:02.797Z,46.95
2018-09-19T18:23:31.529Z,47.78
2018-09-19T18:26:00.341Z,48.09
2018-09-19T18:28:29.498Z,48.19
2018-09-19T18:30:58.502Z,47.43
2018-09-19T18:33:27.408Z,47.60
2018-09-19T18:35:56.130Z,47.79
2018-09-19T18:38:25.854Z,48.57
2018-09-19T18:40:57.604Z,47.88
2018-09-19T18:43:26.282Z,47.82
2018-09-19T18:45:54.916Z,48.32
2018-09-19T18:48:23.577Z,47.82
2018-09-19T18:50:52.911Z,48.38
2018-09-19T18:53:21.697Z,48.05
2018-09-19T18:55:52.018Z,47.88
2018-09-19T18:58:20.779Z,47.66
2018-09-19T19:00:49.419Z,47.84
2018-09-19T19:03:19.173Z,48.57
2018-09-19T19:05:47.997Z,48.23
2018-09-19T19:08:17.166Z,49.26
2018-09-19T19:10:45.755Z,48.89
2018-09-19T19:13:15.294Z,48.79
2018-09-19T19:15:44.436Z,48.79
2018-09-19T19:18:13.383Z,48.94
2018-09-19T19:20:42.421Z,49.40
2018-09-19T19:23:11.355Z,49.05
2018-09-19T19:25:40.189Z,49.31
2018-09-19T19:28:08.928Z,49.22
2018-09-19T19:30:40.533Z,49.58
2018-09-19T19:33:09.524Z,49.55
2018-09-19T19:35:39.060Z,49.26
2018-09-19T19:38:08.291Z,50.09
2018-09-19T19:40:37.886Z,49.72
2018-09-19T19:43:06.828Z,49.98
2018-09-19T19:45:35.620Z,49.13
2018-09-19T19:48:04.488Z,50.64
2018-09-19T19:50:34.984Z,50.67
2018-09-19T19:53:06.176Z,49.90
2018-09-19T19:55:36.137Z,51.24
2018-09-19T19:58:06.118Z,50.60
2018-09-19T20:00:35.358Z,50.16
2018-09-19T20:03:04.566Z,50.58
2018-09-19T20:05:36.531Z,50.67
2018-09-19T20:08:06.997Z,50.83
2018-09-19T20:10:37.330Z,50.84
2018-09-19T20:13:07.455Z,51.47
2018-09-19T20:15:36.293Z,52.01
2018-09-19T20:18:06.439Z,51.26
2018-09-19T20:20:35.790Z,51.52
2018-09-19T20:23:07.334Z,51.40
2018-09-19T20:25:36.968Z,51.32
2018-09-19T20:28:07.232Z,50.82
2018-09-19T20:30:37.089Z,50.97
2018-09-19T20:33:06.809Z,51.14
2018-09-19T20:35:35.795Z,50.35
2018-09-19T20:38:04.479Z,50.17
2018-09-19T20:40:33.108Z,50.71
2018-09-19T20:43:02.292Z,51.04
2018-09-19T20:45:31.573Z,50.51
2018-09-19T20:48:00.414Z,50.68
2018-09-19T20:50:29.152Z,50.33
2018-09-19T20:52:57.748Z,50.38
2018-09-19T20:55:26.649Z,50.36
2018-09-19T20:57:55.301Z,50.06
2018-09-19T21:00:24.155Z,50.40
2018-09-19T21:02:52.994Z,50.43
2018-09-19T21:05:21.878Z,49.95
2018-09-19T21:07:50.716Z,49.90
2018-09-19T21:10:19.555Z,50.39
2018-09-19T21:12:48.477Z,50.37
2018-09-19T21:15:17.100Z,51.08
2018-09-19T21:17:45.848Z,51.18
2018-09-19T21:20:15.001Z,50.54
2018-09-19T21:22:43.703Z,51.24
2018-09-19T21:25:13.058Z,51.12
2018-09-19T21:27:42.798Z,50.96
2018-09-19T21:30:11.712Z,50.99
2018-09-19T21:32:41.136Z,50.70
2018-09-19T21:35:09.823Z,50.97
2018-09-19T21:37:38.440Z,50.86
2018-09-19T21:40:09.256Z,50.94
2018-09-19T21:42:37.994Z,51.20
2018-09-19T21:45:07.762Z,51.50
2018-09-19T21:47:37.066Z,51.23
2018-09-19T21:50:05.909Z,50.61
2018-09-19T21:52:34.475Z,50.55
2018-09-19T21:55:03.465Z,51.10
2018-09-19T21:57:32.320Z,50.88
2018-09-19T22:00:00.975Z,51.33
2018-09-19T22:02:29.595Z,51.67
2018-09-19T22:04:58.969Z,51.32
2018-09-19T22:07:28.244Z,51.33
2018-09-19T22:09:57.132Z,51.25
2018-09-19T22:12:26.157Z,51.56
2018-09-19T22:14:54.894Z,51.01
2018-09-19T22:17:23.781Z,51.70
2018-09-19T22:19:53.059Z,51.90
2018-09-19T22:22:21.706Z,51.18
2018-09-19T22:24:51.075Z,52.03
2018-09-19T22:27:20.616Z,50.94
2018-09-19T22:29:49.265Z,51.62
2018-09-19T22:32:18.106Z,51.22
2018-09-19T22:34:46.695Z,51.26
2018-09-19T22:37:15.369Z,51.63
2018-09-19T22:39:44.129Z,51.21
2018-09-19T22:42:12.840Z,51.18
2018-09-19T22:44:41.517Z,51.06
2018-09-19T22:47:10.199Z,51.39
2018-09-19T22:49:38.866Z,51.98
2018-09-19T22:52:08.531Z,51.87
2018-09-19T22:54:37.251Z,51.36
2018-09-19T22:57:06.415Z,52.01
2018-09-19T22:59:35.212Z,51.45
2018-09-19T23:02:04.551Z,51.39
2018-09-19T23:04:33.278Z,51.95
2018-09-19T23:07:02.492Z,51.50
2018-09-19T23:09:31.201Z,51.84
2018-09-19T23:11:59.880Z,52.07
2018-09-19T23:14:29.018Z,52.06
2018-09-19T23:16:57.656Z,51.36
2018-09-19T23:19:26.882Z,51.50
2018-09-19T23:21:55.614Z,51.21
2018-09-19T23:24:24.479Z,51.35
2018-09-19T23:26:53.311Z,51.28
2018-09-19T23:29:21.934Z,51.08
2018-09-19T23:31:50.942Z,51.24
2018-09-19T23:34:20.144Z,51.08
2018-09-19T23:36:48.734Z,50.74
2018-09-19T23:39:18.406Z,51.04
2018-09-19T23:41:47.067Z,50.72
2018-09-19T23:44:15.723Z,51.44
2018-09-19T23:46:45.143Z,51.20
2018-09-19T23:49:14.388Z,51.69
2018-09-19T23:51:44.039Z,51.75
2018-09-19T23:54:12.716Z,51.59
2018-09-19T23:56:41.457Z,51.22
2018-09-19T23:59:10.091Z,51.22
